createdAt,value
2023-04-14T00:00:33.805Z,2.0643
2023-04-14T00:01:42.196Z,2.0000
2023-04-14T00:02:50.161Z,1.8571
2023-04-14T00:03:58.323Z,2.0143
2023-04-14T00:05:06.165Z,2.1429
2023-04-14T00:06:14.153Z,1.9643
2023-04-14T00:07:22.148Z,2.0929
2023-04-14T00:08:30.252Z,2.0000
2023-04-14T00:09:38.520Z,2.0500
2023-04-14T00:10:46.349Z,1.9714
2023-04-14T00:11:54.439Z,2.0786
2023-04-14T00:13:02.504Z,2.0143
2023-04-14T00:14:10.625Z,1.8643
2023-04-14T00:15:18.681Z,2.0500
2023-04-14T00:16:26.743Z,2.0857
2023-04-14T00:17:34.856Z,2.0643
2023-04-14T00:18:43.136Z,1.8786
2023-04-14T00:19:51.014Z,1.9857
2023-04-14T00:20:58.950Z,1.8071
2023-04-14T00:22:07.007Z,2.0571
2023-04-14T00:23:15.031Z,2.0857
2023-04-14T00:24:23.107Z,2.0571
2023-04-14T00:25:31.339Z,2.1071
2023-04-14T00:26:39.234Z,2.1857
2023-04-14T00:27:47.460Z,2.2857
2023-04-14T00:28:55.459Z,2.4429
2023-04-14T00:30:03.466Z,2.2643
2023-04-14T00:31:11.625Z,2.3500
2023-04-14T00:32:19.622Z,2.0357
2023-04-14T00:33:27.646Z,2.1714
2023-04-14T00:34:35.585Z,2.1143
2023-04-14T00:35:44.029Z,2.1929
2023-04-14T00:36:51.886Z,2.0857
2023-04-14T00:37:59.912Z,2.3071
2023-04-14T00:39:07.961Z,2.1643
2023-04-14T00:40:15.893Z,2.0000
2023-04-14T00:41:24.024Z,2.1714
2023-04-14T00:42:32.120Z,1.8929
2023-04-14T00:43:40.248Z,1.9643
2023-04-14T00:44:48.274Z,2.0643
2023-04-14T00:45:56.344Z,2.1286
2023-04-14T00:47:04.421Z,2.0357
2023-04-14T00:48:12.598Z,2.0286
2023-04-14T00:49:20.483Z,2.4214
2023-04-14T00:50:28.545Z,2.2357
2023-04-14T00:51:36.601Z,2.2000
2023-04-14T00:52:44.727Z,2.2500
2023-04-14T00:53:52.609Z,2.3857
2023-04-14T00:55:00.887Z,2.1714
2023-04-14T00:56:08.904Z,2.0857
2023-04-14T00:57:16.989Z,2.3500
2023-04-14T00:58:25.054Z,2.4143
2023-04-14T00:59:33.054Z,2.3143
2023-04-14T01:00:41.205Z,2.4214
2023-04-14T01:01:49.305Z,2.4357
2023-04-14T01:02:57.403Z,2.1857
2023-04-14T01:04:05.460Z,2.5429
2023-04-14T01:05:13.469Z,2.3000
2023-04-14T01:06:21.441Z,2.1500
2023-04-14T01:07:29.552Z,2.2929
2023-04-14T01:08:37.574Z,2.6429
2023-04-14T01:09:45.668Z,2.4000
2023-04-14T01:10:53.828Z,2.5929
2023-04-14T01:12:01.668Z,2.4429
2023-04-14T01:13:09.824Z,2.4286
2023-04-14T01:14:17.864Z,2.4857
2023-04-14T01:15:25.975Z,2.2929
2023-04-14T01:16:34.139Z,2.2929
2023-04-14T01:17:42.256Z,2.5857
2023-04-14T01:18:50.120Z,2.5357
2023-04-14T01:19:58.228Z,2.5071
2023-04-14T01:21:06.332Z,2.5071
2023-04-14T01:22:14.496Z,2.5857
2023-04-14T01:23:22.282Z,2.3643
2023-04-14T01:24:30.482Z,2.3357
2023-04-14T01:25:38.541Z,2.4286
2023-04-14T01:26:46.622Z,2.5286
2023-04-14T01:27:54.746Z,2.7929
2023-04-14T01:29:03.022Z,2.4714
2023-04-14T01:30:10.898Z,2.5000
2023-04-14T01:31:18.886Z,2.8429
2023-04-14T01:32:26.955Z,3.0214
2023-04-14T01:33:35.030Z,2.9357
2023-04-14T01:34:43.375Z,2.5429
2023-04-14T01:35:51.071Z,2.4571
2023-04-14T01:36:59.148Z,2.4786
2023-04-14T01:38:07.452Z,2.6000
2023-04-14T01:39:15.450Z,2.7429
2023-04-14T01:40:23.449Z,2.7143
2023-04-14T01:41:31.579Z,2.5071
2023-04-14T01:42:39.626Z,2.6000
2023-04-14T01:43:47.658Z,2.7714
2023-04-14T01:44:55.889Z,2.4571
2023-04-14T01:46:03.856Z,2.7571
2023-04-14T01:47:11.871Z,2.7286
2023-04-14T01:48:19.929Z,2.7857
2023-04-14T01:49:28.097Z,2.9429
2023-04-14T01:50:36.037Z,2.6429
2023-04-14T01:51:44.194Z,2.8714
2023-04-14T01:52:52.257Z,2.9571
2023-04-14T01:54:00.117Z,2.5429
2023-04-14T01:55:08.207Z,2.7571
2023-04-14T01:56:16.422Z,2.8286
2023-04-14T01:57:24.408Z,2.9500
2023-04-14T01:58:32.511Z,2.8357
2023-04-14T01:59:40.475Z,2.8714
2023-04-14T02:00:48.520Z,3.0643
2023-04-14T02:01:56.657Z,2.9286
2023-04-14T02:03:04.821Z,2.8714
2023-04-14T02:04:13.090Z,2.7071
2023-04-14T02:05:20.862Z,2.7500
2023-04-14T02:06:28.803Z,2.6929
2023-04-14T02:07:37.051Z,2.6786
2023-04-14T02:08:45.011Z,2.7286
2023-04-14T02:09:53.167Z,2.7000
2023-04-14T02:11:01.071Z,2.8214
2023-04-14T02:12:09.215Z,2.7714
2023-04-14T02:13:17.353Z,2.8286
2023-04-14T02:14:25.372Z,2.8857
2023-04-14T02:15:33.505Z,2.8643
2023-04-14T02:16:41.413Z,2.9143
2023-04-14T02:17:49.615Z,2.6929
2023-04-14T02:18:57.669Z,2.9143
2023-04-14T02:20:05.757Z,2.9286
2023-04-14T02:21:13.913Z,2.9357
2023-04-14T02:22:21.802Z,2.8429
2023-04-14T02:23:29.880Z,2.6429
2023-04-14T02:24:37.947Z,2.6929
2023-04-14T02:25:46.101Z,2.9286
2023-04-14T02:26:54.083Z,2.8643
2023-04-14T02:28:02.248Z,2.9286
2023-04-14T02:29:10.190Z,2.9357
2023-04-14T02:30:18.361Z,2.9786
2023-04-14T02:31:26.402Z,3.0643
2023-04-14T02:32:34.420Z,2.8571
2023-04-14T02:33:42.441Z,3.0071
2023-04-14T02:34:50.503Z,3.0786
2023-04-14T02:35:58.568Z,3.1143
2023-04-14T02:37:06.628Z,2.9929
2023-04-14T02:38:14.810Z,2.9643
2023-04-14T02:39:22.685Z,2.8786
2023-04-14T02:40:30.726Z,3.0000
2023-04-14T02:41:38.973Z,3.0643
2023-04-14T02:42:46.926Z,2.9500
2023-04-14T02:43:55.000Z,2.9929
2023-04-14T02:45:03.098Z,2.9929
2023-04-14T02:46:11.275Z,3.2500
2023-04-14T02:47:19.397Z,3.1214
2023-04-14T02:48:27.333Z,3.6429
2023-04-14T02:49:35.347Z,3.4286
2023-04-14T02:50:43.469Z,3.4143
2023-04-14T02:51:51.479Z,3.6000
2023-04-14T02:52:59.583Z,3.4571
2023-04-14T02:54:07.601Z,3.8929
2023-04-14T02:55:15.658Z,3.9571
2023-04-14T02:56:23.928Z,4.0214
2023-04-14T02:57:31.794Z,4.0571
2023-04-14T02:58:39.839Z,3.8429
2023-04-14T02:59:47.909Z,3.4929
2023-04-14T03:00:56.062Z,3.7214
2023-04-14T03:02:04.098Z,3.4857
2023-04-14T03:03:12.321Z,3.6500
2023-04-14T03:04:20.274Z,3.8214
2023-04-14T03:05:28.187Z,3.4071
2023-04-14T03:06:36.353Z,3.3571
2023-04-14T03:07:44.575Z,3.6929
2023-04-14T03:08:52.424Z,3.6286
2023-04-14T03:10:00.450Z,3.6857
2023-04-14T03:11:08.594Z,3.6571
2023-04-14T03:12:16.542Z,3.5286
2023-04-14T03:13:24.802Z,3.6500
2023-04-14T03:14:32.686Z,3.4571
2023-04-14T03:15:40.978Z,3.7071
2023-04-14T03:16:49.081Z,3.6286
2023-04-14T03:17:56.935Z,3.5571
2023-04-14T03:19:04.951Z,3.7500
2023-04-14T03:20:13.025Z,3.5143
2023-04-14T03:21:21.131Z,3.5929
2023-04-14T03:22:29.330Z,3.4429
2023-04-14T03:23:37.219Z,3.7643
2023-04-14T03:24:45.336Z,3.7643
2023-04-14T03:25:53.219Z,3.6786
2023-04-14T03:27:01.464Z,3.8429
2023-04-14T03:28:09.345Z,3.3786
2023-04-14T03:29:17.512Z,3.7357
2023-04-14T03:30:25.575Z,3.6286
2023-04-14T03:31:33.601Z,3.8929
2023-04-14T03:32:42.040Z,3.4214
2023-04-14T03:33:49.751Z,3.5286
2023-04-14T03:34:57.672Z,3.6714
2023-04-14T03:36:05.876Z,3.7857
2023-04-14T03:37:14.111Z,3.7429
2023-04-14T03:38:21.969Z,3.5643
2023-04-14T03:39:30.061Z,3.6786
2023-04-14T03:40:38.146Z,3.7929
2023-04-14T03:41:46.419Z,3.7143
2023-04-14T03:42:54.250Z,3.5714
2023-04-14T03:44:02.418Z,3.8857
2023-04-14T03:45:10.333Z,3.8000
2023-04-14T03:46:18.430Z,3.8000
2023-04-14T03:47:26.567Z,3.8714
2023-04-14T03:48:34.669Z,3.7500
2023-04-14T03:49:42.584Z,3.4714
2023-04-14T03:50:50.631Z,3.7214
2023-04-14T03:51:58.641Z,3.6857
2023-04-14T03:53:06.788Z,3.4286
2023-04-14T03:54:14.805Z,3.6786
2023-04-14T03:55:22.958Z,3.4857
2023-04-14T03:56:30.947Z,3.6357
2023-04-14T03:57:38.887Z,3.5500
2023-04-14T03:58:47.101Z,3.5429
2023-04-14T03:59:55.242Z,3.4857
2023-04-14T04:01:03.136Z,3.6000
2023-04-14T04:02:11.340Z,3.4071
2023-04-14T04:03:19.521Z,3.5429
2023-04-14T04:04:27.423Z,3.5500
2023-04-14T04:05:35.321Z,3.4786
2023-04-14T04:06:43.442Z,3.6429
2023-04-14T04:07:51.575Z,3.6643
2023-04-14T04:08:59.604Z,3.7286
2023-04-14T04:10:07.749Z,3.7643
2023-04-14T04:11:15.635Z,3.7857
2023-04-14T04:12:23.850Z,3.6357
2023-04-14T04:13:31.850Z,3.8857
2023-04-14T04:14:39.824Z,3.7500
2023-04-14T04:15:47.970Z,3.7214
2023-04-14T04:16:55.982Z,3.7357
2023-04-14T04:18:04.036Z,3.6571
2023-04-14T04:19:12.076Z,3.5786
2023-04-14T04:20:20.349Z,3.5214
2023-04-14T04:21:28.265Z,3.8571
2023-04-14T04:22:36.330Z,3.6071
2023-04-14T04:23:44.330Z,3.2714
2023-04-14T04:24:52.367Z,3.5429
2023-04-14T04:26:00.446Z,3.5143
2023-04-14T04:27:20.339Z,3.6571
2023-04-14T04:28:21.593Z,3.3600
2023-04-14T04:29:29.460Z,3.5571
2023-04-14T04:30:37.709Z,3.8500
2023-04-14T04:31:45.526Z,3.8143
2023-04-14T04:32:53.747Z,3.5571
2023-04-14T04:34:01.749Z,3.4571
2023-04-14T04:35:09.782Z,3.3143
2023-04-14T04:36:17.802Z,3.2929
2023-04-14T04:37:25.823Z,3.6929
2023-04-14T04:38:34.039Z,3.5286
2023-04-14T04:39:42.008Z,3.3786
2023-04-14T04:40:50.109Z,3.4786
2023-04-14T04:41:58.117Z,3.7286
2023-04-14T04:43:06.209Z,3.3071
2023-04-14T04:44:14.346Z,3.1429
2023-04-14T04:45:22.275Z,3.2929
2023-04-14T04:46:30.420Z,3.4286
2023-04-14T04:47:38.485Z,3.5214
2023-04-14T04:48:46.380Z,3.2143
2023-04-14T04:49:54.732Z,3.4000
2023-04-14T04:51:02.576Z,3.3000
2023-04-14T04:52:10.602Z,3.3786
2023-04-14T04:53:18.688Z,3.3357
2023-04-14T04:54:26.901Z,3.1000
2023-04-14T04:55:34.783Z,3.3786
2023-04-14T04:56:42.892Z,3.9857
2023-04-14T04:57:50.831Z,3.4571
2023-04-14T04:58:59.198Z,3.5857
2023-04-14T05:00:06.934Z,3.6429
2023-04-14T05:01:15.237Z,3.5857
2023-04-14T05:02:23.177Z,3.7714
2023-04-14T05:03:31.292Z,3.5643
2023-04-14T05:04:39.324Z,3.6929
2023-04-14T05:05:47.383Z,3.9143
2023-04-14T05:06:55.381Z,3.6643
2023-04-14T05:08:03.434Z,3.3929
2023-04-14T05:09:11.656Z,3.4286
2023-04-14T05:10:19.539Z,3.3143
2023-04-14T05:11:27.548Z,3.3857
2023-04-14T05:12:35.840Z,3.4786
2023-04-14T05:13:43.797Z,3.5071
2023-04-14T05:14:51.754Z,3.4929
2023-04-14T05:15:59.946Z,3.6857
2023-04-14T05:17:07.971Z,3.5500
2023-04-14T05:18:15.894Z,3.5857
2023-04-14T05:19:24.065Z,3.5357
2023-04-14T05:20:34.284Z,3.4286
2023-04-14T05:21:40.364Z,3.6429
2023-04-14T05:22:48.260Z,3.5786
2023-04-14T05:23:56.296Z,3.6429
2023-04-14T05:25:04.456Z,3.3500
2023-04-14T05:26:27.025Z,3.7143
2023-04-14T05:27:25.338Z,4.1133
2023-04-14T05:28:33.415Z,3.7071
2023-04-14T05:29:41.380Z,3.6286
2023-04-14T05:30:49.566Z,3.4071
2023-04-14T05:31:57.617Z,3.6214
2023-04-14T05:33:05.592Z,3.4857
2023-04-14T05:34:13.746Z,3.1929
2023-04-14T05:35:21.752Z,3.1500
2023-04-14T05:36:29.946Z,3.4143
2023-04-14T05:37:37.912Z,3.4500
2023-04-14T05:38:45.847Z,3.4429
2023-04-14T05:39:54.042Z,3.5071
2023-04-14T05:41:02.029Z,3.7429
2023-04-14T05:42:10.259Z,3.3929
2023-04-14T05:43:18.212Z,3.3357
2023-04-14T05:44:26.362Z,3.2500
2023-04-14T05:45:34.452Z,3.3857
2023-04-14T05:46:42.506Z,3.4000
2023-04-14T05:47:50.532Z,3.3571
2023-04-14T05:48:58.770Z,3.0286
2023-04-14T05:50:06.556Z,3.1429
2023-04-14T05:51:14.718Z,3.1500
2023-04-14T05:52:22.687Z,3.3929
2023-04-14T05:53:30.957Z,3.0857
2023-04-14T05:54:38.880Z,3.5571
2023-04-14T05:55:46.974Z,3.3214
2023-04-14T05:56:55.009Z,2.9714
2023-04-14T05:58:03.179Z,3.2000
2023-04-14T05:59:11.282Z,3.1714
2023-04-14T06:00:19.141Z,2.7857
2023-04-14T06:01:27.244Z,3.3857
2023-04-14T06:02:35.493Z,3.1214
2023-04-14T06:03:43.779Z,3.0714
2023-04-14T06:04:51.499Z,3.2143
2023-04-14T06:05:59.536Z,3.2571
2023-04-14T06:07:07.506Z,3.1357
2023-04-14T06:08:15.604Z,3.3429
2023-04-14T06:09:23.830Z,3.5643
2023-04-14T06:10:31.752Z,2.9214
2023-04-14T06:11:39.885Z,2.9071
2023-04-14T06:12:47.819Z,3.0286
2023-04-14T06:13:55.938Z,3.0929
2023-04-14T06:15:04.153Z,2.9786
2023-04-14T06:16:12.100Z,3.2643
2023-04-14T06:17:20.099Z,3.1000
2023-04-14T06:18:28.188Z,2.7143
2023-04-14T06:19:36.229Z,3.0357
2023-04-14T06:20:44.410Z,2.9429
2023-04-14T06:21:52.371Z,2.8786
2023-04-14T06:23:00.468Z,2.9143
2023-04-14T06:24:08.679Z,2.9000
2023-04-14T06:25:16.595Z,2.8643
2023-04-14T06:26:24.786Z,2.9714
2023-04-14T06:27:32.676Z,2.7143
2023-04-14T06:28:42.713Z,3.3786
2023-04-14T06:29:53.688Z,3.2333
2023-04-14T06:31:01.804Z,3.0714
2023-04-14T06:32:10.028Z,3.7214
2023-04-14T06:33:17.790Z,3.2286
2023-04-14T06:34:26.210Z,2.9286
2023-04-14T06:35:34.258Z,3.3357
2023-04-14T06:36:42.041Z,3.2000
2023-04-14T06:37:50.169Z,3.1571
2023-04-14T06:38:58.235Z,2.9714
2023-04-14T06:40:06.249Z,3.1714
2023-04-14T06:41:14.180Z,3.2071
2023-04-14T06:42:22.249Z,3.2857
2023-04-14T06:43:30.394Z,3.0714
2023-04-14T06:44:38.317Z,3.1857
2023-04-14T06:45:46.582Z,2.9929
2023-04-14T06:46:56.387Z,2.8500
2023-04-14T06:48:02.644Z,2.7643
2023-04-14T06:49:10.745Z,2.8714
2023-04-14T06:50:18.644Z,2.8000
2023-04-14T06:51:26.729Z,2.8071
2023-04-14T06:52:34.904Z,2.4571
2023-04-14T06:53:42.828Z,2.5143
2023-04-14T06:54:50.978Z,2.5143
2023-04-14T06:55:59.649Z,2.3714
2023-04-14T06:57:07.185Z,2.0571
2023-04-14T06:58:15.221Z,2.2786
2023-04-14T06:59:23.117Z,2.2286
2023-04-14T07:00:31.202Z,2.4143
2023-04-14T07:01:39.379Z,2.3786
2023-04-14T07:02:47.447Z,2.4643
2023-04-14T07:03:55.436Z,2.2643
2023-04-14T07:05:03.658Z,2.4143
2023-04-14T07:06:11.638Z,2.3143
2023-04-14T07:07:19.565Z,2.2500
2023-04-14T07:08:27.777Z,2.4429
2023-04-14T07:09:35.839Z,2.3571
2023-04-14T07:10:43.945Z,2.2643
2023-04-14T07:11:51.876Z,2.1429
2023-04-14T07:12:59.855Z,2.0571
2023-04-14T07:14:08.050Z,2.1357
2023-04-14T07:15:16.050Z,2.5143
2023-04-14T07:16:24.132Z,2.2429
2023-04-14T07:17:32.353Z,2.3214
2023-04-14T07:18:40.267Z,2.1857
2023-04-14T07:19:48.221Z,2.0357
2023-04-14T07:20:56.464Z,2.0429
2023-04-14T07:22:04.319Z,2.0786
2023-04-14T07:23:12.469Z,2.5357
2023-04-14T07:24:20.559Z,2.1571
2023-04-14T07:25:28.605Z,2.1214
2023-04-14T07:26:36.704Z,2.3786
2023-04-14T07:27:52.938Z,2.3214
2023-04-14T07:28:57.726Z,2.2000
2023-04-14T07:30:05.845Z,2.3000
2023-04-14T07:31:13.691Z,2.5357
2023-04-14T07:32:21.836Z,2.4857
2023-04-14T07:33:29.889Z,2.6714
2023-04-14T07:34:37.961Z,2.2929
2023-04-14T07:35:54.760Z,2.5857
2023-04-14T07:36:58.905Z,2.6333
2023-04-14T07:38:07.043Z,2.3643
2023-04-14T07:39:15.080Z,2.4286
2023-04-14T07:40:23.214Z,2.4357
2023-04-14T07:41:31.279Z,2.1929
2023-04-14T07:42:39.202Z,2.2500
2023-04-14T07:43:47.206Z,2.0857
2023-04-14T07:44:55.508Z,1.8571
2023-04-14T07:46:03.416Z,1.8357
2023-04-14T07:47:11.465Z,1.8286
2023-04-14T07:48:19.568Z,1.8571
2023-04-14T07:49:27.723Z,2.1571
2023-04-14T07:50:35.631Z,1.8643
2023-04-14T07:51:43.739Z,1.9571
2023-04-14T07:52:51.814Z,2.1714
2023-04-14T07:54:00.048Z,1.9000
2023-04-14T07:55:07.890Z,1.9357
2023-04-14T07:56:15.836Z,1.9000
2023-04-14T07:57:24.008Z,2.1571
2023-04-14T07:58:32.160Z,1.9357
2023-04-14T07:59:40.265Z,2.0143
2023-04-14T08:00:48.184Z,1.8643
2023-04-14T08:01:56.520Z,1.9143
2023-04-14T08:03:04.458Z,1.8500
2023-04-14T08:04:12.579Z,1.8000
2023-04-14T08:05:20.466Z,2.1214
2023-04-14T08:06:28.378Z,2.0143
2023-04-14T08:07:36.588Z,2.2786
2023-04-14T08:08:44.662Z,1.9857
2023-04-14T08:09:52.650Z,1.9857
2023-04-14T08:11:00.688Z,1.8500
2023-04-14T08:12:08.694Z,1.9429
2023-04-14T08:13:16.814Z,1.6214
2023-04-14T08:14:25.001Z,1.7500
2023-04-14T08:15:32.979Z,1.5286
2023-04-14T08:16:41.068Z,1.6929
2023-04-14T08:17:49.163Z,1.8214
2023-04-14T08:18:58.201Z,1.5357
2023-04-14T08:20:05.192Z,1.5143
2023-04-14T08:21:13.292Z,1.6714
2023-04-14T08:22:21.272Z,1.8643
2023-04-14T08:23:29.342Z,1.7571
2023-04-14T08:24:37.913Z,1.8286
2023-04-14T08:25:45.671Z,1.6929
2023-04-14T08:26:53.596Z,1.6429
2023-04-14T08:28:01.577Z,1.6714
2023-04-14T08:29:09.580Z,1.7929
2023-04-14T08:30:17.741Z,1.8000
2023-04-14T08:31:25.970Z,1.9286
2023-04-14T08:32:33.892Z,1.8714
2023-04-14T08:33:41.915Z,1.8500
2023-04-14T08:35:37.528Z,1.9429
2023-04-14T08:36:02.927Z,1.9533
2023-04-14T08:37:10.940Z,1.8071
2023-04-14T08:38:18.980Z,1.9571
2023-04-14T08:39:27.061Z,1.7571
2023-04-14T08:40:35.037Z,1.8500
2023-04-14T08:41:43.281Z,2.0500
2023-04-14T08:42:51.207Z,2.0643
2023-04-14T08:43:59.304Z,1.9786
2023-04-14T08:45:07.352Z,1.7643
2023-04-14T08:46:15.462Z,2.1357
2023-04-14T08:47:23.687Z,1.9429
2023-04-14T08:48:31.539Z,1.8571
2023-04-14T08:49:39.594Z,1.6929
2023-04-14T08:50:47.694Z,2.0286
2023-04-14T08:51:55.651Z,2.2000
2023-04-14T08:53:03.784Z,2.0571
2023-04-14T08:54:11.841Z,1.7429
2023-04-14T08:55:19.825Z,1.8143
2023-04-14T08:56:27.935Z,1.8500
2023-04-14T08:57:36.142Z,1.7786
2023-04-14T08:58:44.089Z,2.0571
2023-04-14T08:59:52.111Z,1.6571
2023-04-14T09:01:00.297Z,1.8429
2023-04-14T09:02:08.536Z,1.7357
2023-04-14T09:03:16.474Z,1.9071
2023-04-14T09:04:24.504Z,2.1786
2023-04-14T09:05:32.391Z,1.8786
2023-04-14T09:06:40.621Z,2.2643
2023-04-14T09:07:48.510Z,1.9714
2023-04-14T09:08:56.568Z,2.0643
2023-04-14T09:10:04.548Z,1.7857
2023-04-14T09:11:12.712Z,1.7786
2023-04-14T09:12:20.711Z,1.9286
2023-04-14T09:13:28.868Z,1.6857
2023-04-14T09:14:36.856Z,1.6000
2023-04-14T09:15:45.077Z,1.3929
2023-04-14T09:16:53.040Z,1.7214
2023-04-14T09:18:01.106Z,1.6357
2023-04-14T09:19:09.217Z,2.0786
2023-04-14T09:20:35.780Z,1.7571
2023-04-14T09:21:52.335Z,1.6600
2023-04-14T09:22:43.119Z,1.7200
2023-04-14T09:23:51.058Z,1.6286
2023-04-14T09:24:59.127Z,1.5786
2023-04-14T09:26:07.211Z,1.9357
2023-04-14T09:27:15.193Z,1.6286
2023-04-14T09:28:23.370Z,1.7929
2023-04-14T09:29:31.535Z,1.7929
2023-04-14T09:30:39.343Z,1.4929
2023-04-14T09:31:47.540Z,1.7214
2023-04-14T09:32:55.547Z,1.5786
2023-04-14T09:34:03.782Z,1.2786
2023-04-14T09:35:11.697Z,1.4429
2023-04-14T09:36:19.643Z,1.5500
2023-04-14T09:37:27.773Z,1.5571
2023-04-14T09:38:36.005Z,1.5714
2023-04-14T09:39:43.855Z,1.5429
2023-04-14T09:40:51.919Z,1.5500
2023-04-14T09:41:59.893Z,1.4357
2023-04-14T09:43:08.088Z,1.5500
2023-04-14T09:44:16.018Z,1.5143
2023-04-14T09:45:24.165Z,1.4786
2023-04-14T09:46:32.238Z,1.5214
2023-04-14T09:47:40.361Z,1.6643
2023-04-14T09:48:48.349Z,1.6071
2023-04-14T09:49:56.501Z,1.4429
2023-04-14T09:51:04.478Z,1.4929
2023-04-14T09:52:12.524Z,1.4571
2023-04-14T09:53:20.637Z,1.7214
2023-04-14T09:54:28.736Z,1.6643
2023-04-14T09:55:36.675Z,1.7714
2023-04-14T09:56:44.798Z,1.2714
2023-04-14T09:57:52.863Z,1.4071
2023-04-14T09:59:01.461Z,1.3929
2023-04-14T10:00:08.947Z,1.3929
2023-04-14T10:01:17.167Z,1.3071
2023-04-14T10:02:25.194Z,1.3143
2023-04-14T10:03:34.179Z,1.2571
2023-04-14T10:04:41.191Z,1.3571
2023-04-14T10:05:49.248Z,1.6357
2023-04-14T10:06:57.351Z,1.5857
2023-04-14T10:08:05.389Z,1.7786
2023-04-14T10:09:13.470Z,1.7071
2023-04-14T10:10:21.589Z,1.5571
2023-04-14T10:11:29.921Z,1.4286
2023-04-14T10:12:37.532Z,1.3857
2023-04-14T10:13:45.959Z,1.8214
2023-04-14T10:14:53.819Z,1.3500
2023-04-14T10:16:01.795Z,1.2143
2023-04-14T10:17:09.871Z,1.3071
2023-04-14T10:18:18.011Z,1.4929
2023-04-14T10:19:25.987Z,1.4286
2023-04-14T10:20:34.063Z,1.5429
2023-04-14T10:21:42.144Z,1.4643
2023-04-14T10:22:50.156Z,1.2214
2023-04-14T10:23:58.507Z,1.2571
2023-04-14T10:25:06.315Z,1.4143
2023-04-14T10:26:14.374Z,1.4643
2023-04-14T10:27:22.389Z,1.2929
2023-04-14T10:28:31.958Z,1.5000
2023-04-14T10:29:43.373Z,1.2800
2023-04-14T10:30:51.475Z,1.2429
2023-04-14T10:31:59.622Z,1.7786
2023-04-14T10:33:07.519Z,1.3857
2023-04-14T10:34:15.733Z,1.6357
2023-04-14T10:35:23.692Z,1.4000
2023-04-14T10:36:31.707Z,1.4714
2023-04-14T10:37:39.749Z,1.4500
2023-04-14T10:38:47.830Z,1.4714
2023-04-14T10:39:56.077Z,1.4857
2023-04-14T10:41:03.868Z,1.3357
2023-04-14T10:42:11.916Z,1.3143
2023-04-14T10:43:20.067Z,1.2571
2023-04-14T10:44:28.180Z,1.1071
2023-04-14T10:45:36.290Z,1.4143
2023-04-14T10:46:44.279Z,1.3643
2023-04-14T10:47:52.452Z,1.4643
2023-04-14T10:49:00.475Z,1.2643
2023-04-14T10:50:08.402Z,1.0714
2023-04-14T10:51:16.520Z,1.2857
2023-04-14T10:52:24.531Z,1.2857
2023-04-14T10:53:32.630Z,1.2786
2023-04-14T10:54:40.692Z,1.2000
2023-04-14T10:55:52.064Z,1.3143
2023-04-14T10:57:01.668Z,1.3000
2023-04-14T10:58:09.663Z,1.1714
2023-04-14T10:59:17.845Z,1.1500
2023-04-14T11:00:25.716Z,1.2000
2023-04-14T11:01:33.948Z,1.0571
2023-04-14T11:02:42.095Z,0.9143
2023-04-14T11:03:50.279Z,0.9643
2023-04-14T11:04:58.024Z,1.2143
2023-04-14T11:06:06.169Z,1.2071
2023-04-14T11:07:14.139Z,1.1000
2023-04-14T11:08:22.138Z,1.0929
2023-04-14T11:09:30.245Z,0.9786
2023-04-14T11:10:38.341Z,1.3929
2023-04-14T11:11:46.435Z,1.2286
2023-04-14T11:12:54.456Z,1.1857
2023-04-14T11:14:02.478Z,1.1071
2023-04-14T11:15:10.573Z,1.2143
2023-04-14T11:16:18.742Z,1.4571
2023-04-14T11:17:26.673Z,1.3714
2023-04-14T11:18:34.731Z,1.1571
2023-04-14T11:19:42.818Z,1.1929
2023-04-14T11:20:50.900Z,1.1714
2023-04-14T11:21:58.911Z,1.0429
2023-04-14T11:23:07.113Z,1.1214
2023-04-14T11:24:15.085Z,1.1643
2023-04-14T11:25:24.851Z,1.0786
2023-04-14T11:26:31.128Z,1.2286
2023-04-14T11:27:39.290Z,1.2143
2023-04-14T11:28:47.141Z,1.1571
2023-04-14T11:29:55.319Z,1.2143
2023-04-14T11:31:03.457Z,1.1214
2023-04-14T11:32:11.636Z,1.1071
2023-04-14T11:33:19.469Z,1.0571
2023-04-14T11:34:27.608Z,1.1857
2023-04-14T11:35:35.626Z,1.1214
2023-04-14T11:36:43.742Z,1.2500
2023-04-14T11:37:51.727Z,1.1429
2023-04-14T11:38:59.985Z,0.9214
2023-04-14T11:40:07.814Z,1.0500
2023-04-14T11:41:16.031Z,1.1429
2023-04-14T11:42:23.960Z,1.1000
2023-04-14T11:43:31.900Z,1.2000
2023-04-14T11:44:40.076Z,1.0643
2023-04-14T11:45:48.180Z,1.1143
2023-04-14T11:46:56.398Z,1.0286
2023-04-14T11:48:04.465Z,1.0286
2023-04-14T11:49:12.199Z,1.1286
2023-04-14T11:50:20.612Z,1.1143
2023-04-14T11:51:28.407Z,1.0429
2023-04-14T11:52:36.606Z,1.0143
2023-04-14T11:53:44.583Z,1.1786
2023-04-14T11:54:52.636Z,1.0786
2023-04-14T11:56:00.738Z,1.1571
2023-04-14T11:57:08.605Z,1.0643
2023-04-14T11:58:16.834Z,0.9214
2023-04-14T11:59:24.843Z,1.0429
2023-04-14T12:00:32.796Z,1.0714
2023-04-14T12:01:40.940Z,1.2000
2023-04-14T12:02:49.199Z,1.3000
2023-04-14T12:03:57.217Z,1.1000
2023-04-14T12:05:05.349Z,1.2857
2023-04-14T12:06:13.201Z,1.1286
2023-04-14T12:07:21.242Z,1.2786
2023-04-14T12:08:29.391Z,1.3286
2023-04-14T12:09:37.244Z,1.1571
2023-04-14T12:10:45.431Z,1.2643
2023-04-14T12:11:53.478Z,1.3929
2023-04-14T12:13:01.799Z,1.5500
2023-04-14T12:14:09.770Z,1.3214
2023-04-14T12:15:17.656Z,1.3429
2023-04-14T12:16:25.808Z,1.2143
2023-04-14T12:17:33.930Z,1.2786
2023-04-14T12:18:41.964Z,1.2286
2023-04-14T12:19:49.908Z,1.2286
2023-04-14T12:20:57.997Z,1.3857
2023-04-14T12:22:05.968Z,1.1357
2023-04-14T12:23:13.976Z,1.5214
2023-04-14T12:24:22.130Z,1.3714
2023-04-14T12:25:30.218Z,1.2143
2023-04-14T12:26:38.240Z,1.1786
2023-04-14T12:27:46.380Z,1.1214
2023-04-14T12:28:54.343Z,1.3857
2023-04-14T12:30:02.392Z,1.1214
2023-04-14T12:31:10.470Z,1.2786
2023-04-14T12:32:18.508Z,1.1786
2023-04-14T12:33:26.705Z,1.1071
2023-04-14T12:34:34.641Z,1.0857
2023-04-14T12:35:42.737Z,1.1643
2023-04-14T12:36:50.960Z,1.3571
2023-04-14T12:37:58.891Z,1.3357
2023-04-14T12:39:07.064Z,1.3071
2023-04-14T12:40:14.985Z,1.3714
2023-04-14T12:41:22.968Z,1.3429
2023-04-14T12:42:31.366Z,1.2429
2023-04-14T12:43:39.020Z,1.3143
2023-04-14T12:44:47.175Z,1.1714
2023-04-14T12:45:55.265Z,1.0571
2023-04-14T12:47:03.335Z,1.0571
2023-04-14T12:48:11.392Z,1.1357
2023-04-14T12:49:19.275Z,1.1643
2023-04-14T12:50:27.500Z,1.2000
2023-04-14T12:51:35.509Z,1.2429
2023-04-14T12:52:43.606Z,1.0857
2023-04-14T12:53:51.672Z,1.1643
2023-04-14T12:54:59.707Z,1.0143
2023-04-14T12:56:07.793Z,1.1071
2023-04-14T12:57:15.807Z,1.0000
2023-04-14T12:58:23.764Z,1.0571
2023-04-14T12:59:31.937Z,1.0857
2023-04-14T13:00:40.035Z,1.1429
2023-04-14T13:01:48.091Z,1.1000
2023-04-14T13:02:56.256Z,1.0643
2023-04-14T13:04:04.121Z,1.0786
2023-04-14T13:05:12.484Z,1.1714
2023-04-14T13:06:20.416Z,1.1500
2023-04-14T13:07:28.356Z,1.1214
2023-04-14T13:08:36.413Z,1.3571
2023-04-14T13:09:44.456Z,1.1929
2023-04-14T13:10:52.502Z,1.1714
2023-04-14T13:12:00.560Z,1.1643
2023-04-14T13:13:08.647Z,1.1786
2023-04-14T13:14:16.764Z,1.1500
2023-04-14T13:16:10.296Z,1.0714
2023-04-14T13:16:37.687Z,1.1400
2023-04-14T13:17:45.753Z,1.2214
2023-04-14T13:18:53.728Z,0.9857
2023-04-14T13:20:01.914Z,0.9929
2023-04-14T13:21:09.996Z,1.0357
2023-04-14T13:22:17.980Z,1.1857
2023-04-14T13:23:26.035Z,1.1429
2023-04-14T13:24:34.003Z,1.0071
2023-04-14T13:25:42.277Z,0.9786
2023-04-14T13:26:50.309Z,1.1429
2023-04-14T13:27:58.284Z,1.1929
2023-04-14T13:29:06.342Z,0.9643
2023-04-14T13:30:14.429Z,1.0214
2023-04-14T13:31:22.577Z,1.1071
2023-04-14T13:32:30.516Z,1.1571
2023-04-14T13:33:38.619Z,0.9571
2023-04-14T13:34:46.819Z,1.1143
2023-04-14T13:35:54.615Z,1.0071
2023-04-14T13:37:02.775Z,0.9714
2023-04-14T13:38:11.008Z,1.1000
2023-04-14T13:39:18.901Z,0.8857
2023-04-14T13:40:26.960Z,0.8643
2023-04-14T13:41:35.058Z,0.8857
2023-04-14T13:42:43.072Z,1.2071
2023-04-14T13:43:51.126Z,1.0214
2023-04-14T13:44:59.156Z,1.0500
2023-04-14T13:46:07.416Z,0.9357
2023-04-14T13:47:15.246Z,0.9714
2023-04-14T13:48:23.403Z,1.0286
2023-04-14T13:49:31.479Z,0.9571
2023-04-14T13:50:39.498Z,1.1000
2023-04-14T13:51:47.594Z,1.2214
2023-04-14T13:52:55.725Z,0.9214
2023-04-14T13:54:03.677Z,0.9643
2023-04-14T13:55:11.917Z,1.3286
2023-04-14T13:56:19.865Z,1.0071
2023-04-14T13:57:27.860Z,1.0929
2023-04-14T13:58:35.933Z,1.1071
2023-04-14T13:59:44.208Z,1.2571
2023-04-14T14:00:52.016Z,1.1643
2023-04-14T14:02:00.281Z,1.1214
2023-04-14T14:03:08.349Z,1.0929
2023-04-14T14:04:16.260Z,1.1500
2023-04-14T14:05:24.575Z,1.1429
2023-04-14T14:06:32.425Z,1.0143
2023-04-14T14:07:40.791Z,0.9357
2023-04-14T14:08:48.566Z,0.8786
2023-04-14T14:09:56.712Z,0.7714